createdAt,value
2018-04-10T00:00:31.709Z,46.60
2018-04-10T00:02:59.325Z,46.50
2018-04-10T00:05:27.086Z,46.50
2018-04-10T00:07:55.542Z,46.50
2018-04-10T00:10:24.437Z,46.50
2018-04-10T00:12:52.073Z,46.60
2018-04-10T00:15:19.782Z,46.50
2018-04-10T00:17:47.503Z,46.60
2018-04-10T00:20:15.906Z,46.80
2018-04-10T00:22:44.278Z,46.90
2018-04-10T00:25:12.690Z,47.00
2018-04-10T00:27:41.100Z,47.10
2018-04-10T00:30:08.858Z,47.10
2018-04-10T00:32:36.584Z,47.20
2018-04-10T00:35:04.220Z,47.50
2018-04-10T00:37:31.974Z,47.60
2018-04-10T00:39:59.563Z,48.30
2018-04-10T00:42:28.012Z,48.10
2018-04-10T00:44:55.610Z,48.00
2018-04-10T00:47:23.998Z,48.40
2018-04-10T00:49:52.390Z,48.50
2018-04-10T00:52:20.744Z,48.40
2018-04-10T00:54:48.365Z,48.60
2018-04-10T00:57:16.805Z,48.60
2018-04-10T00:59:46.417Z,48.60
2018-04-10T01:02:14.739Z,48.80
2018-04-10T01:04:47.996Z,48.80
2018-04-10T01:07:15.878Z,48.90
2018-04-10T01:09:55.173Z,49.00
2018-04-10T01:12:23.589Z,49.00
2018-04-10T01:14:52.054Z,49.00
2018-04-10T01:17:19.738Z,48.80
2018-04-10T01:19:47.352Z,48.90
2018-04-10T01:22:15.099Z,49.00
2018-04-10T01:24:42.722Z,49.10
2018-04-10T01:27:10.355Z,49.10
2018-04-10T01:29:39.027Z,49.20
2018-04-10T01:32:06.648Z,49.10
2018-04-10T01:34:34.228Z,49.30
2018-04-10T01:37:01.837Z,49.30
2018-04-10T01:39:29.431Z,49.40
2018-04-10T01:41:57.106Z,49.50
2018-04-10T01:44:25.319Z,49.50
2018-04-10T01:46:52.986Z,49.50
2018-04-10T01:49:21.385Z,49.50
2018-04-10T01:51:48.958Z,49.40
2018-04-10T01:54:16.552Z,49.40
2018-04-10T01:56:44.201Z,49.30
2018-04-10T01:59:11.795Z,49.40
2018-04-10T02:01:39.432Z,49.50
2018-04-10T02:04:07.837Z,49.60
2018-04-10T02:06:46.400Z,49.50
2018-04-10T02:09:15.054Z,50.10
2018-04-10T02:11:43.138Z,49.70
2018-04-10T02:14:11.558Z,49.70
2018-04-10T02:16:39.218Z,49.70
2018-04-10T02:19:06.861Z,49.70
2018-04-10T02:21:34.504Z,49.70
2018-04-10T02:24:02.153Z,49.70
2018-04-10T02:26:29.871Z,49.70
2018-04-10T02:28:57.500Z,49.80
2018-04-10T02:31:25.212Z,50.10
2018-04-10T02:33:52.869Z,50.20
2018-04-10T02:36:21.527Z,50.10
2018-04-10T02:38:50.119Z,50.30
2018-04-10T02:41:18.986Z,50.20
2018-04-10T02:43:46.560Z,50.30
2018-04-10T02:46:14.147Z,50.20
2018-04-10T02:48:41.894Z,50.20
2018-04-10T02:51:09.583Z,50.20
2018-04-10T02:53:38.295Z,50.30
2018-04-10T02:56:06.756Z,50.40
2018-04-10T02:58:39.904Z,50.20
2018-04-10T03:01:08.624Z,50.30
2018-04-10T03:03:36.248Z,50.30
2018-04-10T03:06:03.854Z,50.40
2018-04-10T03:08:32.227Z,50.70
2018-04-10T03:10:59.841Z,50.50
2018-04-10T03:13:27.510Z,50.80
2018-04-10T03:15:55.142Z,50.90
2018-04-10T03:18:24.077Z,51.00
2018-04-10T03:20:51.836Z,51.20
2018-04-10T03:23:19.561Z,51.40
2018-04-10T03:25:48.061Z,51.70
2018-04-10T03:28:16.707Z,52.10
2018-04-10T03:30:45.081Z,51.90
2018-04-10T03:33:12.753Z,51.90
2018-04-10T03:35:45.925Z,52.00
2018-04-10T03:38:16.692Z,52.10
2018-04-10T03:40:45.124Z,52.00
2018-04-10T03:43:13.556Z,52.30
2018-04-10T03:45:41.191Z,52.20
2018-04-10T03:48:09.587Z,52.40
2018-04-10T03:50:37.892Z,52.40
2018-04-10T03:53:05.502Z,52.30
2018-04-10T03:55:33.125Z,52.40
2018-04-10T03:58:01.547Z,52.60
2018-04-10T04:00:29.195Z,52.60
2018-04-10T04:02:58.611Z,52.80
2018-04-10T04:05:26.367Z,52.80
2018-04-10T04:07:55.312Z,52.80
2018-04-10T04:10:23.791Z,53.10
2018-04-10T04:12:52.904Z,52.70
2018-04-10T04:15:21.348Z,52.80
2018-04-10T04:17:49.076Z,52.80
2018-04-10T04:20:28.775Z,52.80
2018-04-10T04:22:56.495Z,53.00
2018-04-10T04:25:24.396Z,53.00
2018-04-10T04:27:53.068Z,53.10
2018-04-10T04:30:21.174Z,53.10
2018-04-10T04:32:48.950Z,53.20
2018-04-10T04:35:16.886Z,53.30
2018-04-10T04:37:44.610Z,53.50
2018-04-10T04:40:12.253Z,53.50
2018-04-10T04:42:40.635Z,53.80
2018-04-10T04:45:09.289Z,53.80
2018-04-10T04:47:37.713Z,54.70
2018-04-10T04:50:05.916Z,54.10
2018-04-10T04:52:33.598Z,54.50
2018-04-10T04:55:01.280Z,54.80
2018-04-10T04:57:29.041Z,54.70
2018-04-10T04:59:57.398Z,54.40
2018-04-10T05:02:25.754Z,54.30
2018-04-10T05:04:53.532Z,54.20
2018-04-10T05:07:21.129Z,54.20
2018-04-10T05:09:49.648Z,54.40
2018-04-10T05:12:17.256Z,55.10
2018-04-10T05:14:44.829Z,56.20
2018-04-10T05:17:12.446Z,55.80
2018-04-10T05:19:40.937Z,56.30
2018-04-10T05:22:08.536Z,56.50
2018-04-10T05:24:36.158Z,56.40
2018-04-10T05:27:03.791Z,56.40
2018-04-10T05:29:32.133Z,56.70
2018-04-10T05:31:59.749Z,56.30
2018-04-10T05:34:27.372Z,56.60
2018-04-10T05:36:54.970Z,56.60
2018-04-10T05:39:23.968Z,56.70
2018-04-10T05:41:51.537Z,56.70
2018-04-10T05:44:19.188Z,56.70
2018-04-10T05:46:46.752Z,56.70
2018-04-10T05:49:14.338Z,56.60
2018-04-10T05:51:41.899Z,56.70
2018-04-10T05:54:09.511Z,56.70
2018-04-10T05:56:37.156Z,56.80
2018-04-10T05:59:04.755Z,56.70
2018-04-10T06:01:32.463Z,56.50
2018-04-10T06:04:00.139Z,56.50
2018-04-10T06:06:27.700Z,56.30
2018-04-10T06:08:55.357Z,56.20
2018-04-10T06:11:22.970Z,56.10
2018-04-10T06:13:51.379Z,56.20
2018-04-10T06:16:19.024Z,56.10
2018-04-10T06:18:46.675Z,56.10
2018-04-10T06:21:14.270Z,56.20
2018-04-10T06:23:42.634Z,56.10
2018-04-10T06:26:10.211Z,56.10
2018-04-10T06:28:37.909Z,56.00
2018-04-10T06:31:06.257Z,56.40
2018-04-10T06:33:33.873Z,55.90
2018-04-10T06:36:02.313Z,55.70
2018-04-10T06:38:30.007Z,55.60
2018-04-10T06:40:58.308Z,55.70
2018-04-10T06:43:25.897Z,55.80
2018-04-10T06:45:53.525Z,55.80
2018-04-10T06:48:21.117Z,55.50
2018-04-10T06:50:48.717Z,55.40
2018-04-10T06:53:16.332Z,55.30
2018-04-10T06:55:43.989Z,55.30
2018-04-10T06:58:11.578Z,55.30
2018-04-10T07:00:39.189Z,55.20
2018-04-10T07:03:06.774Z,55.10
2018-04-10T07:05:34.603Z,55.10
2018-04-10T07:08:02.229Z,55.10
2018-04-10T07:10:29.914Z,55.10
2018-04-10T07:12:57.499Z,54.80
2018-04-10T07:15:25.874Z,54.60
2018-04-10T07:17:54.250Z,54.60
2018-04-10T07:20:21.918Z,54.60
2018-04-10T07:22:49.537Z,54.40
2018-04-10T07:25:17.183Z,54.50
2018-04-10T07:27:45.568Z,54.30
2018-04-10T07:30:13.167Z,54.30
2018-04-10T07:32:41.532Z,54.30
2018-04-10T07:35:09.938Z,54.20
2018-04-10T07:37:38.709Z,54.00
2018-04-10T07:40:06.342Z,53.90
2018-04-10T07:42:33.920Z,54.10
2018-04-10T07:45:01.494Z,53.30
2018-04-10T07:47:29.107Z,52.20
2018-04-10T07:49:56.757Z,52.70
2018-04-10T07:52:24.459Z,51.50
2018-04-10T07:54:52.132Z,51.20
2018-04-10T07:57:20.041Z,51.20
2018-04-10T07:59:47.612Z,50.80
2018-04-10T08:02:15.946Z,50.50
2018-04-10T08:04:43.522Z,50.50
2018-04-10T08:07:11.086Z,50.70
2018-04-10T08:09:38.831Z,49.90
2018-04-10T08:12:06.432Z,49.50
2018-04-10T08:14:34.057Z,49.70
2018-04-10T08:17:01.637Z,48.80
2018-04-10T08:19:30.024Z,49.20
2018-04-10T08:21:58.405Z,49.20
2018-04-10T08:24:26.130Z,49.20
2018-04-10T08:26:53.707Z,48.60
2018-04-10T08:29:21.309Z,48.20
2018-04-10T08:31:48.893Z,47.90
2018-04-10T08:34:16.556Z,47.90
2018-04-10T08:36:45.020Z,47.90
2018-04-10T08:39:12.673Z,47.20
2018-04-10T08:41:40.344Z,47.00
2018-04-10T08:44:09.252Z,45.30
2018-04-10T08:46:36.830Z,45.20
2018-04-10T08:49:04.449Z,44.40
2018-04-10T08:51:32.016Z,44.60
2018-04-10T08:53:59.632Z,44.10
2018-04-10T08:56:28.849Z,43.50
2018-04-10T08:58:57.238Z,43.20
2018-04-10T09:01:24.863Z,43.20
2018-04-10T09:03:52.472Z,43.30
2018-04-10T09:06:20.914Z,43.20
2018-04-10T09:08:48.538Z,43.10
2018-04-10T09:11:16.920Z,42.00
2018-04-10T09:13:45.306Z,42.30
2018-04-10T09:16:12.953Z,42.10
2018-04-10T09:21:14.904Z,41.60
2018-04-10T09:23:42.519Z,42.30
2018-04-10T09:26:10.142Z,41.90
2018-04-10T09:28:38.762Z,41.80
2018-04-10T09:31:07.044Z,41.80
2018-04-10T09:33:34.634Z,41.50
2018-04-10T09:36:02.263Z,41.80
2018-04-10T09:38:30.544Z,41.60
2018-04-10T09:40:58.118Z,42.00
2018-04-10T09:43:26.476Z,41.70
2018-04-10T09:45:54.108Z,41.60
2018-04-10T09:48:21.700Z,41.80
2018-04-10T09:50:49.335Z,41.40
2018-04-10T09:53:17.599Z,40.80
2018-04-10T09:55:45.373Z,40.30
2018-04-10T09:58:12.930Z,40.10
2018-04-10T10:00:41.282Z,40.50
2018-04-10T10:03:09.638Z,40.80
2018-04-10T10:05:37.236Z,40.80
2018-04-10T10:08:06.543Z,41.10
2018-04-10T10:10:34.919Z,41.00
2018-04-10T10:13:03.202Z,41.00
2018-04-10T10:15:30.935Z,40.80
2018-04-10T10:17:58.519Z,41.70
2018-04-10T10:20:26.197Z,40.80
2018-04-10T10:22:53.826Z,40.00
2018-04-10T10:25:21.434Z,40.00
2018-04-10T10:27:49.220Z,40.00
2018-04-10T10:30:16.858Z,39.60
2018-04-10T10:32:44.415Z,39.50
2018-04-10T10:35:12.774Z,39.20
2018-04-10T10:37:40.364Z,39.20
2018-04-10T10:40:08.906Z,38.70
2018-04-10T10:42:36.503Z,38.70
2018-04-10T10:45:04.092Z,38.60
2018-04-10T10:47:32.421Z,38.10
2018-04-10T10:50:00.814Z,37.80
2018-04-10T10:52:28.653Z,37.70
2018-04-10T10:54:56.329Z,38.00
2018-04-10T10:57:24.730Z,38.10
2018-04-10T10:59:53.101Z,38.30
2018-04-10T11:02:21.489Z,38.80
2018-04-10T11:04:49.140Z,38.70
2018-04-10T11:07:16.721Z,38.70
2018-04-10T11:09:44.373Z,38.50
2018-04-10T11:12:12.806Z,38.90
2018-04-10T11:14:40.411Z,39.80
2018-04-10T11:17:08.039Z,39.60
2018-04-10T11:19:35.685Z,38.60
2018-04-10T11:22:03.349Z,39.40
2018-04-10T11:24:30.981Z,38.90
2018-04-10T11:26:58.579Z,39.00
2018-04-10T11:29:26.956Z,39.90
2018-04-10T11:31:54.969Z,39.80
2018-04-10T11:34:22.606Z,39.60
2018-04-10T11:36:50.229Z,39.10
2018-04-10T11:39:17.843Z,39.10
2018-04-10T11:41:45.425Z,39.40
2018-04-10T11:44:13.062Z,39.70
2018-04-10T11:46:40.706Z,38.70
2018-04-10T11:49:08.427Z,37.60
2018-04-10T11:51:36.003Z,37.60
2018-04-10T11:54:04.415Z,38.10
2018-04-10T11:56:32.863Z,38.70
2018-04-10T11:59:00.428Z,38.60
2018-04-10T12:01:28.096Z,38.70
2018-04-10T12:03:55.701Z,39.00
2018-04-10T12:06:23.319Z,38.90
2018-04-10T12:08:50.905Z,38.70
2018-04-10T12:11:18.567Z,37.70
2018-04-10T12:13:46.212Z,37.70
2018-04-10T12:16:13.852Z,38.10
2018-04-10T12:18:41.533Z,37.70
2018-04-10T12:21:09.174Z,38.10
2018-04-10T12:23:36.764Z,38.10
2018-04-10T12:26:04.417Z,38.40
2018-04-10T12:28:32.010Z,38.00
2018-04-10T12:31:00.445Z,38.00
2018-04-10T12:33:28.054Z,38.00
2018-04-10T12:35:55.753Z,37.30
2018-04-10T12:38:23.320Z,36.90
2018-04-10T12:40:50.930Z,37.70
2018-04-10T12:43:18.635Z,37.40
2018-04-10T12:45:47.030Z,36.70
2018-04-10T12:48:14.686Z,36.60
2018-04-10T12:50:42.356Z,37.40
2018-04-10T12:53:09.933Z,36.90
2018-04-10T12:55:38.324Z,37.00
2018-04-10T12:58:06.769Z,37.00
2018-04-10T13:00:34.421Z,36.90
2018-04-10T13:03:02.018Z,36.70
2018-04-10T13:05:30.380Z,36.70
2018-04-10T13:07:58.542Z,36.60
2018-04-10T13:10:26.957Z,37.30
2018-04-10T13:12:54.545Z,37.20
2018-04-10T13:15:22.163Z,37.20
2018-04-10T13:17:49.733Z,36.90
2018-04-10T13:20:17.792Z,36.40
2018-04-10T13:22:45.426Z,36.10
2018-04-10T13:25:13.817Z,36.30
2018-04-10T13:27:41.598Z,36.20
2018-04-10T13:30:10.430Z,36.60
2018-04-10T13:32:39.238Z,36.20
2018-04-10T13:35:08.150Z,36.20
2018-04-10T13:37:35.871Z,36.20
2018-04-10T13:40:03.614Z,35.80
2018-04-10T13:42:33.030Z,35.10
2018-04-10T13:45:01.493Z,36.40
2018-04-10T13:47:29.270Z,35.70
2018-04-10T13:49:56.925Z,35.60
2018-04-10T13:52:24.556Z,36.00
2018-04-10T13:54:52.185Z,35.20
2018-04-10T13:57:19.820Z,35.40
2018-04-10T13:59:48.826Z,35.30
2018-04-10T14:02:16.445Z,35.20
2018-04-10T14:04:44.095Z,35.40
2018-04-10T14:07:11.779Z,35.60
2018-04-10T14:09:39.355Z,35.80
2018-04-10T14:12:07.498Z,35.20
2018-04-10T14:14:36.029Z,35.20
2018-04-10T14:17:03.626Z,35.30
2018-04-10T14:19:31.800Z,35.50
2018-04-10T14:21:59.866Z,36.10
2018-04-10T14:24:27.753Z,35.90
2018-04-10T14:26:57.761Z,36.20
2018-04-10T14:29:27.827Z,36.10
2018-04-10T14:31:55.540Z,36.10
2018-04-10T14:34:25.833Z,35.80
2018-04-10T14:36:54.578Z,36.60
2018-04-10T14:39:22.628Z,36.40
2018-04-10T14:41:50.256Z,36.20
2018-04-10T14:44:18.184Z,35.90
2018-04-10T14:46:45.804Z,35.90
2018-04-10T14:49:13.436Z,35.80
2018-04-10T14:51:41.036Z,35.90
2018-04-10T14:54:08.660Z,35.70
2018-04-10T14:56:36.282Z,36.10
2018-04-10T14:59:04.267Z,36.40
2018-04-10T15:01:32.055Z,35.80
2018-04-10T15:04:00.573Z,35.90
2018-04-10T15:06:28.943Z,35.90
2018-04-10T15:08:56.549Z,35.90
2018-04-10T15:11:24.239Z,35.80
2018-04-10T15:13:51.991Z,35.70
2018-04-10T15:16:19.629Z,35.70
2018-04-10T15:18:47.995Z,35.80
2018-04-10T15:21:15.634Z,35.70
2018-04-10T15:23:43.258Z,36.20
2018-04-10T15:26:10.857Z,36.50
2018-04-10T15:28:38.584Z,36.10
2018-04-10T15:31:06.167Z,36.00
2018-04-10T15:33:33.764Z,35.50
2018-04-10T15:36:01.376Z,35.80
2018-04-10T15:38:29.144Z,36.00
2018-04-10T15:40:56.793Z,36.00
2018-04-10T15:43:25.205Z,36.20
2018-04-10T15:45:53.488Z,36.20
2018-04-10T15:48:21.862Z,36.70
2018-04-10T15:50:49.459Z,36.70
2018-04-10T15:53:17.156Z,36.80
2018-04-10T15:55:45.941Z,36.60
2018-04-10T15:58:14.385Z,36.70
2018-04-10T16:00:42.012Z,36.90
2018-04-10T16:03:09.652Z,36.70
2018-04-10T16:05:37.605Z,36.70
2018-04-10T16:08:05.472Z,36.80
2018-04-10T16:10:33.310Z,36.80
2018-04-10T16:13:01.160Z,36.50
2018-04-10T16:15:30.038Z,35.90
2018-04-10T16:17:58.403Z,36.00
2018-04-10T16:20:27.274Z,35.90
2018-04-10T16:22:55.733Z,35.40
2018-04-10T16:25:23.366Z,35.30
2018-04-10T16:27:51.043Z,35.70
2018-04-10T16:30:19.144Z,35.80
2018-04-10T16:32:52.303Z,35.90
2018-04-10T16:35:19.953Z,35.80
2018-04-10T16:37:47.821Z,35.90
2018-04-10T16:40:16.207Z,36.10
2018-04-10T16:42:44.786Z,36.50
2018-04-10T16:45:13.198Z,36.50
2018-04-10T16:47:41.566Z,36.50
2018-04-10T16:50:09.220Z,36.40
2018-04-10T16:52:36.897Z,36.60
2018-04-10T16:55:04.508Z,36.70
2018-04-10T16:57:32.880Z,37.10
2018-04-10T17:00:00.669Z,37.00
2018-04-10T17:02:29.166Z,37.40
2018-04-10T17:04:57.520Z,37.80
2018-04-10T17:07:26.115Z,37.70
2018-04-10T17:09:59.863Z,37.90
2018-04-10T17:12:28.046Z,38.00
2018-04-10T17:14:55.820Z,38.30
2018-04-10T17:17:24.463Z,38.50
2018-04-10T17:19:52.528Z,38.40
2018-04-10T17:22:20.150Z,38.50
2018-04-10T17:24:48.372Z,38.70
2018-04-10T17:27:16.739Z,38.90
2018-04-10T17:29:44.391Z,38.80
2018-04-10T17:32:12.004Z,38.80
2018-04-10T17:34:39.589Z,39.20
2018-04-10T17:37:08.000Z,39.40
2018-04-10T17:39:35.659Z,39.20
2018-04-10T17:42:04.054Z,39.50
2018-04-10T17:44:31.793Z,39.50
2018-04-10T17:47:01.352Z,39.30
2018-04-10T17:49:29.028Z,39.10
2018-04-10T17:51:56.636Z,38.20
2018-04-10T17:54:24.225Z,37.90
2018-04-10T17:56:52.595Z,37.00
2018-04-10T17:59:20.358Z,37.00
2018-04-10T18:01:48.257Z,37.20
2018-04-10T18:04:15.922Z,37.20
2018-04-10T18:06:43.989Z,37.10
2018-04-10T18:09:12.058Z,37.20
2018-04-10T18:11:40.791Z,37.40
2018-04-10T18:14:08.380Z,37.50
2018-04-10T18:16:36.850Z,37.50
2018-04-10T18:19:04.421Z,37.60
2018-04-10T18:21:32.050Z,37.60
2018-04-10T18:24:00.868Z,37.90
2018-04-10T18:26:29.926Z,38.20
2018-04-10T18:28:57.548Z,38.10
2018-04-10T18:31:25.164Z,38.20
2018-04-10T18:33:52.808Z,38.30
2018-04-10T18:36:20.725Z,38.50
2018-04-10T18:38:48.343Z,38.60
2018-04-10T18:41:16.818Z,38.80
2018-04-10T18:43:44.446Z,38.70
2018-04-10T18:46:12.083Z,39.40
2018-04-10T18:48:40.443Z,38.40
2018-04-10T18:51:08.081Z,38.40
2018-04-10T18:53:35.763Z,38.20
2018-04-10T18:56:03.344Z,38.10
2018-04-10T18:58:30.993Z,38.30
2018-04-10T19:00:58.582Z,38.00
2018-04-10T19:03:27.214Z,37.70
2018-04-10T19:05:55.776Z,37.70
2018-04-10T19:08:23.383Z,37.60
2018-04-10T19:10:52.531Z,37.40
2018-04-10T19:13:20.656Z,37.40
2018-04-10T19:15:48.303Z,37.60
2018-04-10T19:18:15.903Z,37.70
2018-04-10T19:20:43.508Z,37.70
2018-04-10T19:23:12.384Z,38.10
2018-04-10T19:25:40.006Z,38.00
2018-04-10T19:28:08.331Z,38.50
2018-04-10T19:30:35.910Z,38.40
2018-04-10T19:33:03.509Z,38.50
2018-04-10T19:35:31.495Z,38.70
2018-04-10T19:37:59.913Z,38.60
2018-04-10T19:40:27.934Z,39.00
2018-04-10T19:42:56.285Z,39.40
2018-04-10T19:45:25.030Z,40.00
2018-04-10T19:47:54.037Z,39.90
2018-04-10T19:50:22.192Z,40.20
2018-04-10T19:52:50.252Z,40.20
2018-04-10T19:55:19.298Z,40.20
2018-04-10T19:57:47.298Z,40.20
2018-04-10T20:00:15.420Z,40.80
2018-04-10T20:02:44.341Z,40.30
2018-04-10T20:05:12.447Z,40.40
2018-04-10T20:07:40.522Z,40.50
2018-04-10T20:10:08.197Z,40.70
2018-04-10T20:12:36.220Z,40.90
2018-04-10T20:15:04.285Z,41.20
2018-04-10T20:17:32.354Z,41.40
2018-04-10T20:20:00.121Z,41.60
2018-04-10T20:22:28.266Z,41.80
2018-04-10T20:24:56.265Z,42.10
2018-04-10T20:27:24.382Z,42.40
2018-04-10T20:29:52.726Z,42.70
2018-04-10T20:32:21.417Z,43.90
2018-04-10T20:34:51.272Z,43.40
2018-04-10T20:37:19.200Z,43.40
2018-04-10T20:39:47.551Z,43.60
2018-04-10T20:42:15.991Z,44.10
2018-04-10T20:44:44.002Z,44.20
2018-04-10T20:47:12.831Z,44.50
2018-04-10T20:49:41.404Z,44.60
2018-04-10T20:52:09.158Z,44.60
2018-04-10T20:54:37.942Z,44.90
2018-04-10T20:57:05.618Z,45.00
2018-04-10T20:59:34.099Z,45.10
2018-04-10T21:02:01.794Z,45.00
2018-04-10T21:04:29.452Z,45.00
2018-04-10T21:06:57.189Z,45.00
2018-04-10T21:09:24.896Z,45.30
2018-04-10T21:11:52.480Z,45.30
2018-04-10T21:14:20.232Z,45.40
2018-04-10T21:16:47.855Z,45.40
2018-04-10T21:19:15.607Z,45.50
2018-04-10T21:21:43.300Z,45.80
2018-04-10T21:24:11.724Z,46.20
2018-04-10T21:26:39.605Z,46.10
2018-04-10T21:29:07.363Z,46.10
2018-04-10T21:31:35.006Z,46.10
2018-04-10T21:34:02.799Z,46.20
2018-04-10T21:36:30.476Z,46.20
2018-04-10T21:39:00.297Z,46.30
2018-04-10T21:41:28.201Z,46.20
2018-04-10T21:43:55.943Z,46.20
2018-04-10T21:46:25.444Z,46.30
2018-04-10T21:48:53.372Z,46.30
2018-04-10T21:51:21.327Z,46.40
2018-04-10T21:53:49.727Z,46.60
2018-04-10T21:56:17.339Z,46.60
2018-04-10T21:58:45.724Z,46.50
2018-04-10T22:01:13.465Z,46.30
2018-04-10T22:03:41.172Z,46.30
2018-04-10T22:06:08.908Z,46.30
2018-04-10T22:08:37.287Z,46.20
2018-04-10T22:11:05.388Z,46.20
2018-04-10T22:13:33.601Z,46.20
2018-04-10T22:16:01.820Z,46.30
2018-04-10T22:18:30.072Z,46.50
2018-04-10T22:20:59.040Z,46.60
2018-04-10T22:23:27.950Z,46.70
2018-04-10T22:25:57.824Z,46.50
2018-04-10T22:28:24.479Z,46.80
2018-04-10T22:30:52.115Z,46.90
2018-04-10T22:33:20.197Z,46.90
2018-04-10T22:35:48.244Z,47.10
2018-04-10T22:38:17.588Z,47.20
2018-04-10T22:40:46.065Z,47.40
2018-04-10T22:43:15.238Z,47.50
2018-04-10T22:45:43.521Z,47.40
2018-04-10T22:48:12.646Z,47.40
2018-04-10T22:50:40.324Z,47.50
2018-04-10T22:53:08.345Z,48.20
2018-04-10T22:55:36.867Z,47.50
2018-04-10T22:58:05.487Z,47.50
2018-04-10T23:00:47.373Z,47.40
2018-04-10T23:03:15.815Z,47.60
2018-04-10T23:05:45.144Z,47.70
2018-04-10T23:08:13.546Z,47.80
2018-04-10T23:10:41.908Z,48.00
2018-04-10T23:13:10.102Z,48.10
2018-04-10T23:15:38.693Z,48.10
2018-04-10T23:18:06.729Z,48.20
2018-04-10T23:20:35.068Z,48.30
2018-04-10T23:23:03.189Z,48.30
2018-04-10T23:25:31.629Z,48.30
2018-04-10T23:27:59.249Z,48.30
2018-04-10T23:30:26.935Z,48.30
2018-04-10T23:32:55.129Z,48.40
2018-04-10T23:35:23.960Z,49.30
2018-04-10T23:37:51.973Z,48.60
2018-04-10T23:40:20.504Z,49.00
2018-04-10T23:42:49.324Z,49.40
2018-04-10T23:45:17.639Z,49.40
2018-04-10T23:47:45.828Z,49.40
2018-04-10T23:50:13.932Z,49.90
2018-04-10T23:52:43.228Z,50.40
2018-04-10T23:55:11.332Z,50.40
2018-04-10T23:57:40.017Z,50.60
